Gerhard Schulte — VRBY5 — position and weather

sailwx.info

Track history (hours):
 
Tides and Currents Weather Stations Pressure Air Temp Water Temp Dewpoint Dewpoint Depression Visibility Wind Speed Wind Dir Waves Ship Positions

Gerhard Schulte

Last reported at 2018-Feb-06 00:24 UTC. Time now 2018-Feb-18 03:25 UTC.
Position S 05°13' E 011°00'.
Warning: this ship's position is 12 days out of date.

Length 231 m; draft 9.8 m.

Type: Ship (hazmat cat A). MMSI: 477214400.

Date/timePositionNaut miles runAvg speedWind from/ knotsBaromVisibWave heightAir tempDewpointWater temp
2018-Feb-06 00:24S 05°13' E 011°00'615.4
2018-Feb-06 00:00S 05°10' E 011°06'815.3
2018-Feb-05 23:30S 05°07' E 011°12'815.4
2018-Feb-05 23:00S 05°04' E 011°19'815.4
2018-Feb-05 22:29S 05°01' E 011°27'4 0.1
2018-Feb-04 15:17S 05°03' E 011°30'311.2
2018-Feb-04 14:59S 05°04' E 011°27'611.4
2018-Feb-04 14:28S 05°05' E 011°21'511.3
2018-Feb-04 14:00S 05°07' E 011°16'510.3
2018-Feb-04 13:30S 05°11' E 011°14'611.9
2018-Feb-04 12:58S 05°18' E 011°12'612.0
2018-Feb-04 12:30S 05°23' E 011°11'612.0
2018-Feb-04 12:00S 05°29' E 011°11'611.2
2018-Feb-04 11:30S 05°35' E 011°11'  
Track history (hours):
 
Tides and Currents Weather Stations Pressure Air Temp Water Temp Dewpoint Dewpoint Depression Visibility Wind Speed Wind Dir Waves Ship Positions

Gerhard Schulte

Last reported at 2018-Feb-06 00:24 UTC. Time now 2018-Feb-18 03:25 UTC.
Position S 05°13' E 011°00'.
Warning: this ship's position is 12 days out of date.

Length 231 m; draft 9.8 m.

Type: Ship (hazmat cat A). MMSI: 477214400.

Date/timePositionNaut miles runAvg speedWind from/ knotsBaromVisibWave heightAir tempDewpointWater temp
2018-Feb-06 00:24S 05°13' E 011°00'615.4
2018-Feb-06 00:00S 05°10' E 011°06'815.3
2018-Feb-05 23:30S 05°07' E 011°12'815.4
2018-Feb-05 23:00S 05°04' E 011°19'815.4
2018-Feb-05 22:29S 05°01' E 011°27'4 0.1
2018-Feb-04 15:17S 05°03' E 011°30'311.2
2018-Feb-04 14:59S 05°04' E 011°27'611.4
2018-Feb-04 14:28S 05°05' E 011°21'511.3
2018-Feb-04 14:00S 05°07' E 011°16'510.3
2018-Feb-04 13:30S 05°11' E 011°14'611.9
2018-Feb-04 12:58S 05°18' E 011°12'612.0
2018-Feb-04 12:30S 05°23' E 011°11'612.0
2018-Feb-04 12:00S 05°29' E 011°11'611.2
2018-Feb-04 11:30S 05°35' E 011°11'  

Dump ship's entire track history